Time;durP1;ratioP1;P1;durP2;ratioP2;P2;SDS_P1;SDS_P2;PMS_P1;PMS_P2;Temp;Humidity;BMP_temperature;BMP_pressure;BME280_temperature;BME280_humidity;BME280_pressure;Samples;Min_cycle;Max_cycle;Signal;HPM_P1;HPM_P2
2021/10/08 04:01:18;;;;;;;8.85;8.07;;;6.70;99.90;;;;;;5515858;23;20245;-71
2021/10/08 04:03:44;;;;;;;8.50;7.85;;;6.70;99.90;;;;;;4917092;29;20211;-70
2021/10/08 04:06:11;;;;;;;8.02;7.32;;;6.70;99.90;;;;;;4916623;29;20253;-70
2021/10/08 04:08:38;;;;;;;9.32;8.50;;;6.70;99.90;;;;;;4917184;29;20211;-70
2021/10/08 04:11:04;;;;;;;8.13;7.30;;;6.70;99.90;;;;;;4917156;29;20711;-70
2021/10/08 04:13:31;;;;;;;9.07;8.27;;;6.70;99.90;;;;;;4917463;29;20211;-70
2021/10/08 04:15:58;;;;;;;14.40;8.82;;;6.70;99.90;;;;;;4917462;29;20285;-70
2021/10/08 04:18:26;;;;;;;8.38;7.78;;;6.70;99.90;;;;;;4902977;29;20211;-70
2021/10/08 04:20:53;;;;;;;9.82;8.93;;;6.60;99.90;;;;;;4897860;29;20249;-70
2021/10/08 04:23:20;;;;;;;9.70;8.85;;;6.60;99.90;;;;;;4898091;29;20203;-71
2021/10/08 04:25:47;;;;;;;9.40;8.70;;;6.60;99.90;;;;;;4897801;29;20743;-68
2021/10/08 04:28:14;;;;;;;9.43;8.57;;;6.60;99.90;;;;;;4898258;29;20241;-70
2021/10/08 04:30:41;;;;;;;9.73;8.73;;;6.60;99.90;;;;;;4897578;29;20730;-70
2021/10/08 04:33:15;;;;;;;10.43;8.98;;;6.60;99.90;;;;;;4897685;29;20664;-69
2021/10/08 04:35:43;;;;;;;9.85;8.40;;;6.60;99.90;;;;;;4897033;29;20231;-70
2021/10/08 04:38:10;;;;;;;9.23;8.20;;;6.60;99.90;;;;;;4898197;29;20215;-69
2021/10/08 04:40:37;;;;;;;8.10;7.35;;;6.50;99.90;;;;;;4897571;29;20304;-69
2021/10/08 04:43:04;;;;;;;11.90;9.52;;;6.50;99.90;;;;;;4897525;29;20702;-69
2021/10/08 04:45:32;;;;;;;10.25;8.25;;;6.50;99.90;;;;;;4897732;29;20274;-69
2021/10/08 04:47:58;;;;;;;7.50;6.95;;;6.50;99.90;;;;;;4897774;29;20216;-69
2021/10/08 04:50:25;;;;;;;8.70;7.78;;;6.50;99.90;;;;;;4896843;29;20246;-68
2021/10/08 04:52:53;;;;;;;9.15;8.35;;;6.50;99.90;;;;;;4897418;29;20616;-68
2021/10/08 04:55:21;;;;;;;9.90;9.00;;;6.50;99.90;;;;;;4897730;29;20294;-68
2021/10/08 04:57:47;;;;;;;8.77;8.07;;;6.50;99.90;;;;;;4897443;29;20270;-68
2021/10/08 05:00:15;;;;;;;9.82;8.52;;;6.40;99.90;;;;;;4897739;29;20297;-69
2021/10/08 05:02:42;;;;;;;8.90;8.20;;;6.40;99.90;;;;;;4897432;29;20628;-70
2021/10/08 05:05:09;;;;;;;9.00;8.30;;;6.40;99.90;;;;;;4897007;29;20215;-69
2021/10/08 05:07:36;;;;;;;8.93;8.20;;;6.40;99.90;;;;;;4896938;29;20207;-69
2021/10/08 05:10:04;;;;;;;7.88;7.00;;;6.40;99.90;;;;;;4897707;29;20282;-69
2021/10/08 05:12:31;;;;;;;9.10;7.38;;;6.40;99.90;;;;;;4897237;29;20365;-69
2021/10/08 05:14:58;;;;;;;8.73;7.97;;;6.40;99.90;;;;;;4897321;29;20310;-69
2021/10/08 05:17:24;;;;;;;9.32;7.60;;;6.30;99.90;;;;;;4897377;29;20314;-70
2021/10/08 05:19:51;;;;;;;9.57;8.68;;;6.40;99.90;;;;;;4897025;29;20247;-72
2021/10/08 05:22:17;;;;;;;8.20;7.40;;;6.30;99.90;;;;;;4897046;29;20231;-70
2021/10/08 05:24:44;;;;;;;8.25;7.60;;;6.30;99.90;;;;;;4897199;29;20211;-69
2021/10/08 05:27:12;;;;;;;9.02;8.15;;;6.30;99.90;;;;;;4897117;29;20207;-69
2021/10/08 05:29:39;;;;;;;44.80;24.75;;;6.30;99.90;;;;;;4897302;29;20208;-69
2021/10/08 05:32:06;;;;;;;37.92;23.65;;;6.30;99.90;;;;;;4896641;29;20286;-69
2021/10/08 05:34:33;;;;;;;39.47;25.63;;;6.30;99.90;;;;;;4896774;29;20215;-69
2021/10/08 05:36:59;;;;;;;44.00;28.30;;;6.30;99.90;;;;;;4897631;29;20282;-70
2021/10/08 05:39:26;;;;;;;29.95;21.45;;;6.30;99.90;;;;;;4897572;29;20210;-70
2021/10/08 05:41:53;;;;;;;15.23;11.48;;;6.30;99.90;;;;;;4896662;29;20310;-70
2021/10/08 05:44:21;;;;;;;11.23;10.10;;;6.30;99.90;;;;;;4896524;29;20215;-71
2021/10/08 05:46:47;;;;;;;8.75;7.93;;;6.30;99.90;;;;;;4896995;29;20211;-70
2021/10/08 05:49:14;;;;;;;9.40;7.63;;;6.40;99.90;;;;;;4897544;29;20215;-70
2021/10/08 05:51:41;;;;;;;7.93;7.30;;;6.40;99.90;;;;;;4896117;29;20754;-69
2021/10/08 05:54:07;;;;;;;9.48;8.00;;;6.40;99.90;;;;;;4896995;29;20219;-69
2021/10/08 05:56:34;;;;;;;8.68;8.07;;;6.40;99.90;;;;;;4896811;29;20227;-71
2021/10/08 05:59:01;;;;;;;9.80;8.38;;;6.40;99.90;;;;;;4896902;29;20263;-69
2021/10/08 06:01:29;;;;;;;11.80;8.65;;;6.50;99.90;;;;;;4896652;29;20756;-69
2021/10/08 06:03:56;;;;;;;24.77;9.90;;;6.60;99.90;;;;;;4897084;29;20219;-69
2021/10/08 06:06:22;;;;;;;13.93;10.82;;;6.60;99.90;;;;;;4896107;29;20574;-70
2021/10/08 06:08:49;;;;;;;23.77;10.52;;;6.60;99.90;;;;;;4896962;29;20622;-69
2021/10/08 06:11:16;;;;;;;48.60;11.70;;;6.70;99.90;;;;;;4896640;29;20242;-69
2021/10/08 06:13:43;;;;;;;41.67;12.20;;;6.70;99.90;;;;;;4897250;29;20211;-70
2021/10/08 06:16:10;;;;;;;81.00;12.98;;;6.80;99.90;;;;;;4896837;29;20230;-69
2021/10/08 06:18:38;;;;;;;41.47;10.82;;;6.70;99.90;;;;;;4897108;29;20302;-69
2021/10/08 06:21:05;;;;;;;28.20;10.75;;;6.70;99.90;;;;;;4895931;29;20227;-69
2021/10/08 06:23:31;;;;;;;34.63;10.68;;;6.80;99.90;;;;;;4896595;29;20215;-69
2021/10/08 06:25:58;;;;;;;30.77;11.40;;;6.80;99.90;;;;;;4896559;29;20300;-69
2021/10/08 06:28:25;;;;;;;26.20;10.50;;;6.90;99.90;;;;;;4896774;29;20631;-69
2021/10/08 06:30:52;;;;;;;19.17;8.57;;;6.90;99.90;;;;;;4896578;29;20231;-69
2021/10/08 06:33:19;;;;;;;10.30;8.93;;;6.90;99.90;;;;;;4896884;29;20283;-69
2021/10/08 06:35:47;;;;;;;10.98;9.98;;;7.00;99.90;;;;;;4896119;29;20286;-69
2021/10/08 06:38:14;;;;;;;11.25;9.65;;;7.10;99.90;;;;;;4896699;29;20282;-70
2021/10/08 06:40:41;;;;;;;13.13;11.65;;;7.10;99.90;;;;;;4896618;29;20279;-70
2021/10/08 06:43:08;;;;;;;11.52;9.18;;;7.10;99.90;;;;;;4896838;29;20215;-69
2021/10/08 06:45:36;;;;;;;13.02;11.77;;;7.10;99.90;;;;;;4896804;29;20223;-69
2021/10/08 06:48:03;;;;;;;11.07;10.00;;;7.20;99.90;;;;;;4899938;29;20215;-69
2021/10/08 06:50:29;;;;;;;10.90;8.82;;;7.20;99.90;;;;;;4898982;29;20707;-70
2021/10/08 06:52:57;;;;;;;9.13;8.20;;;7.20;99.90;;;;;;4900085;29;20263;-69
2021/10/08 06:55:25;;;;;;;11.63;10.00;;;7.30;99.90;;;;;;4899846;29;20227;-70
2021/10/08 06:57:51;;;;;;;9.77;8.77;;;7.30;99.90;;;;;;4899905;29;20667;-69
2021/10/08 07:00:18;;;;;;;8.68;7.88;;;7.20;99.90;;;;;;4899723;29;20255;-69
2021/10/08 07:02:49;;;;;;;9.90;9.00;;;7.20;99.90;;;;;;4899841;29;20211;-69
2021/10/08 07:05:17;;;;;;;16.33;8.98;;;7.30;99.90;;;;;;4898992;29;20672;-69
2021/10/08 07:07:44;;;;;;;11.05;8.75;;;7.20;99.90;;;;;;4899655;29;20207;-69
2021/10/08 07:10:13;;;;;;;10.57;9.50;;;7.30;99.90;;;;;;4899634;29;20211;-70
2021/10/08 07:12:40;;;;;;;9.75;8.75;;;7.30;99.90;;;;;;4899702;29;20239;-69
2021/10/08 07:15:15;;;;;;;10.30;9.27;;;7.30;99.90;;;;;;4899939;29;20223;-69
2021/10/08 07:17:44;;;;;;;9.52;8.57;;;7.40;99.90;;;;;;4899655;29;20234;-69
2021/10/08 07:20:11;;;;;;;10.55;9.45;;;7.40;99.90;;;;;;4899012;29;20225;-70
2021/10/08 07:22:38;;;;;;;10.63;8.73;;;7.40;99.90;;;;;;4899394;29;20611;-70
2021/10/08 07:25:06;;;;;;;10.18;9.18;;;7.50;99.90;;;;;;4899596;29;20242;-69
2021/10/08 07:27:35;;;;;;;7.85;7.15;;;7.60;99.90;;;;;;4899375;29;20668;-70
2021/10/08 07:30:02;;;;;;;11.77;9.57;;;7.70;99.90;;;;;;4899219;29;20239;-70
2021/10/08 07:32:29;;;;;;;10.18;8.80;;;7.80;99.90;;;;;;4899152;29;20753;-70
2021/10/08 07:34:56;;;;;;;12.15;9.07;;;7.90;99.90;;;;;;4898339;29;20257;-71
2021/10/08 07:37:23;;;;;;;9.80;8.90;;;7.90;99.90;;;;;;4899628;29;20305;-70
2021/10/08 07:39:50;;;;;;;10.88;9.88;;;8.00;99.90;;;;;;4899204;29;20212;-71
2021/10/08 07:42:17;;;;;;;15.50;9.65;;;8.10;99.90;;;;;;4898993;29;20287;-70
2021/10/08 07:44:45;;;;;;;14.75;11.00;;;8.20;99.90;;;;;;4899083;29;20215;-70
2021/10/08 07:47:11;;;;;;;14.45;11.80;;;8.30;99.90;;;;;;4898998;29;20207;-70
2021/10/08 07:49:38;;;;;;;17.50;11.73;;;8.40;99.90;;;;;;4898718;29;20219;-70
2021/10/08 07:52:05;;;;;;;14.15;11.20;;;8.50;99.90;;;;;;4898968;29;20231;-71
2021/10/08 07:54:32;;;;;;;12.18;10.50;;;8.60;99.90;;;;;;4899517;29;20700;-70
2021/10/08 07:57:00;;;;;;;11.05;9.82;;;8.60;99.90;;;;;;4898566;29;20235;-70
2021/10/08 07:59:26;;;;;;;11.02;10.13;;;8.60;99.90;;;;;;4899074;29;20276;-70
2021/10/08 08:01:54;;;;;;;12.02;10.35;;;8.60;99.90;;;;;;4898524;29;20234;-70
2021/10/08 08:04:21;;;;;;;12.45;10.98;;;8.70;99.90;;;;;;4898162;29;20219;-72
2021/10/08 08:06:48;;;;;;;11.52;10.25;;;8.70;99.90;;;;;;4897362;29;20223;-70
2021/10/08 08:09:15;;;;;;;10.02;9.13;;;8.70;99.90;;;;;;4899256;29;20215;-70
2021/10/08 08:11:42;;;;;;;11.95;10.73;;;8.70;99.90;;;;;;4898908;29;20234;-71
2021/10/08 08:14:09;;;;;;;10.93;9.88;;;8.70;99.90;;;;;;4898575;29;20215;-70
2021/10/08 08:16:42;;;;;;;11.13;9.95;;;8.80;99.90;;;;;;4898177;29;20231;-71
2021/10/08 08:19:11;;;;;;;10.77;9.77;;;8.90;99.90;;;;;;4898684;29;20215;-70
2021/10/08 08:21:38;;;;;;;14.05;11.57;;;8.90;99.90;;;;;;4897547;29;20330;-70
2021/10/08 08:24:05;;;;;;;11.88;10.73;;;9.00;99.90;;;;;;4898458;29;20219;-70
2021/10/08 08:26:32;;;;;;;15.00;11.75;;;9.10;99.90;;;;;;4898227;29;20267;-70
2021/10/08 08:28:58;;;;;;;12.40;11.23;;;9.20;99.90;;;;;;4898437;29;20215;-71
2021/10/08 08:31:25;;;;;;;11.85;9.73;;;9.30;99.90;;;;;;4898208;29;20238;-70
2021/10/08 08:33:52;;;;;;;11.50;10.35;;;9.30;99.90;;;;;;4898416;29;20251;-70
2021/10/08 08:36:20;;;;;;;13.20;11.32;;;9.40;99.90;;;;;;4897266;29;20370;-70
2021/10/08 08:38:46;;;;;;;11.05;10.07;;;9.50;99.90;;;;;;4898344;29;20211;-70
2021/10/08 08:41:13;;;;;;;11.52;10.35;;;9.60;99.90;;;;;;4897770;29;20235;-70
2021/10/08 08:43:40;;;;;;;11.65;10.70;;;9.70;99.90;;;;;;4897686;29;20259;-70
2021/10/08 08:46:06;;;;;;;10.20;9.35;;;9.80;99.90;;;;;;4897842;29;20240;-70
2021/10/08 08:48:33;;;;;;;12.35;11.05;;;9.90;99.90;;;;;;4897842;29;20270;-70
2021/10/08 08:51:00;;;;;;;11.52;10.43;;;10.00;99.90;;;;;;4896841;29;20699;-70
2021/10/08 08:53:28;;;;;;;11.90;10.80;;;10.10;99.90;;;;;;4897586;29;20243;-69
2021/10/08 08:55:55;;;;;;;10.80;9.90;;;10.20;99.90;;;;;;4897684;29;20207;-70
2021/10/08 08:58:21;;;;;;;11.30;10.25;;;10.40;99.90;;;;;;4897611;29;20702;-70
2021/10/08 09:00:57;;;;;;;10.63;9.73;;;10.40;99.90;;;;;;4897509;29;20299;-71
2021/10/08 09:03:23;;;;;;;10.32;9.43;;;10.50;99.90;;;;;;4897435;29;20215;-69
2021/10/08 09:05:50;;;;;;;10.73;9.85;;;10.60;99.90;;;;;;4896643;29;20211;-70
2021/10/08 09:08:18;;;;;;;10.77;9.73;;;10.70;99.90;;;;;;4897446;29;20215;-69
2021/10/08 09:10:47;;;;;;;10.93;9.95;;;10.80;99.90;;;;;;4896994;29;20598;-70
2021/10/08 09:13:16;;;;;;;9.90;9.00;;;10.90;99.90;;;;;;4897891;29;20219;-70
2021/10/08 09:15:48;;;;;;;10.30;9.40;;;10.90;99.90;;;;;;4897812;29;20218;-71
2021/10/08 09:18:16;;;;;;;9.95;9.20;;;11.00;99.90;;;;;;4897402;29;20237;-70
2021/10/08 09:21:05;;;;;;;11.98;8.65;;;11.10;99.90;;;;;;4897075;29;20231;-71
2021/10/08 09:23:34;;;;;;;11.73;10.57;;;11.20;99.90;;;;;;4898009;29;20219;-70
2021/10/08 09:26:03;;;;;;;10.88;9.90;;;11.20;99.90;;;;;;4897374;29;20266;-70
2021/10/08 09:28:30;;;;;;;9.35;8.68;;;11.40;99.90;;;;;;4897398;29;20648;-73
2021/10/08 09:30:58;;;;;;;9.98;9.02;;;11.50;99.90;;;;;;4897181;29;20337;-73
2021/10/08 09:33:29;;;;;;;10.07;9.20;;;11.60;99.90;;;;;;4897514;29;20617;-73
2021/10/08 09:35:59;;;;;;;9.65;8.90;;;11.60;99.90;;;;;;4896621;29;20219;-73
2021/10/08 09:38:28;;;;;;;8.80;8.00;;;11.70;99.90;;;;;;4897468;29;20238;-73
2021/10/08 09:40:59;;;;;;;10.40;9.50;;;11.80;99.90;;;;;;4897290;29;20230;-73
2021/10/08 09:43:30;;;;;;;10.45;9.73;;;11.90;99.90;;;;;;4898066;29;20306;-74
2021/10/08 09:45:58;;;;;;;10.55;9.65;;;12.00;99.90;;;;;;4897467;29;20270;-73
2021/10/08 09:48:26;;;;;;;9.52;8.55;;;12.00;99.90;;;;;;4897690;29;20262;-72
2021/10/08 09:51:02;;;;;;;9.33;8.53;;;12.20;99.90;;;;;;4896768;29;20249;-72
2021/10/08 09:53:29;;;;;;;8.40;7.80;;;12.20;99.90;;;;;;4897804;29;20550;-73
2021/10/08 09:55:56;;;;;;;9.17;8.47;;;12.30;99.90;;;;;;4898155;29;20889;-73
2021/10/08 09:58:23;;;;;;;8.03;7.33;;;12.40;99.90;;;;;;4897728;29;20491;-73
2021/10/08 10:00:57;;;;;;;9.10;8.30;;;12.50;99.90;;;;;;4897015;29;20498;-72
2021/10/08 10:03:24;;;;;;;9.40;8.60;;;12.50;99.90;;;;;;4897145;29;20495;-72
2021/10/08 10:05:51;;;;;;;10.00;9.10;;;12.60;99.90;;;;;;4896574;29;20475;-73
2021/10/08 10:08:19;;;;;;;9.13;8.32;;;12.60;99.90;;;;;;4897470;29;20266;-73
2021/10/08 10:10:46;;;;;;;8.63;7.80;;;12.70;99.90;;;;;;4896942;29;20290;-73
2021/10/08 10:13:13;;;;;;;8.60;7.93;;;12.70;99.90;;;;;;4896931;29;20215;-72
2021/10/08 10:15:42;;;;;;;11.20;10.13;;;12.80;99.90;;;;;;4897151;29;20511;-72
2021/10/08 10:18:13;;;;;;;9.52;8.65;;;12.90;99.90;;;;;;4898017;29;20491;-73
2021/10/08 10:20:44;;;;;;;8.52;7.80;;;12.90;99.90;;;;;;4897792;29;20321;-72
2021/10/08 10:23:11;;;;;;;9.30;8.60;;;13.00;99.90;;;;;;4900814;29;20215;-72
2021/10/08 10:25:38;;;;;;;9.10;8.30;;;13.00;99.90;;;;;;4900361;29;20523;-72
2021/10/08 10:28:06;;;;;;;9.20;8.43;;;13.10;99.90;;;;;;4900724;29;20455;-72
2021/10/08 10:30:33;;;;;;;9.85;9.00;;;13.10;99.90;;;;;;4900679;29;20487;-72
2021/10/08 10:33:02;;;;;;;9.50;8.77;;;13.20;99.90;;;;;;4900644;29;20223;-73
2021/10/08 10:35:42;;;;;;;9.17;8.47;;;13.30;99.90;;;;;;4899880;29;20473;-71
2021/10/08 10:38:22;;;;;;;10.00;9.13;;;13.40;99.90;;;;;;4900462;29;20804;-71
2021/10/08 10:41:27;;;;;;;9.83;8.93;;;13.40;99.90;;;;;;4900211;29;20637;-73
2021/10/08 10:44:15;;;;;;;10.27;9.30;;;13.40;99.90;;;;;;4900256;29;20475;-72
2021/10/08 10:46:51;;;;;;;9.37;8.47;;;13.50;99.90;;;;;;4900080;29;20467;-72
2021/10/08 10:52:28;;;;;;;10.60;9.50;;;13.60;99.90;;;;;;4899335;29;20530;-73
2021/10/08 10:55:03;;;;;;;11.57;10.53;;;13.60;99.90;;;;;;4900153;29;20467;-72
2021/10/08 10:58:05;;;;;;;12.03;10.83;;;13.70;99.90;;;;;;4899956;29;20494;-73
2021/10/08 11:00:38;;;;;;;16.00;10.77;;;13.80;99.90;;;;;;4899343;29;21013;-72
2021/10/08 11:03:12;;;;;;;10.63;9.63;;;13.90;99.90;;;;;;4899914;29;20463;-72
2021/10/08 11:05:41;;;;;;;10.90;9.93;;;13.90;99.90;;;;;;4899037;29;20462;-73
2021/10/08 11:08:17;;;;;;;12.87;11.67;;;14.00;99.90;;;;;;4900207;29;20483;-73
2021/10/08 11:10:46;;;;;;;11.57;10.47;;;14.10;99.90;;;;;;4899309;29;20487;-73
2021/10/08 11:13:27;;;;;;;13.10;11.70;;;14.20;99.90;;;;;;4899452;29;20467;-73
2021/10/08 11:15:55;;;;;;;16.43;12.07;;;14.30;99.90;;;;;;4899466;29;20462;-73
2021/10/08 11:18:42;;;;;;;12.90;11.63;;;14.30;99.90;;;;;;4899710;29;20546;-73
2021/10/08 11:21:10;;;;;;;13.50;12.10;;;14.20;99.90;;;;;;4898877;29;20493;-70
2021/10/08 11:23:40;;;;;;;14.10;12.67;;;14.20;99.90;;;;;;4899353;29;20482;-69
2021/10/08 11:26:10;;;;;;;14.80;13.10;;;14.20;99.90;;;;;;4899082;29;20476;-70
2021/10/08 11:28:38;;;;;;;13.60;12.20;;;14.20;99.90;;;;;;4899435;29;20471;-69
2021/10/08 11:31:08;;;;;;;16.80;12.67;;;14.30;99.90;;;;;;4899114;29;20562;-69
2021/10/08 11:33:39;;;;;;;15.27;13.13;;;14.40;99.90;;;;;;4898485;29;20478;-69
2021/10/08 11:36:29;;;;;;;19.03;14.80;;;14.40;99.90;;;;;;4898397;29;20483;-70
2021/10/08 11:39:17;;;;;;;20.20;15.40;;;14.40;99.90;;;;;;4895316;29;20495;-69
2021/10/08 11:41:55;;;;;;;15.10;13.50;;;14.40;99.90;;;;;;4898985;29;20498;-70
2021/10/08 11:44:24;;;;;;;18.97;14.47;;;14.40;99.90;;;;;;4899017;29;20975;-70
2021/10/08 11:47:04;;;;;;;15.63;13.80;;;14.50;99.90;;;;;;4898779;29;20471;-70
2021/10/08 11:52:16;;;;;;;17.73;14.97;;;14.60;99.90;;;;;;4898548;29;20559;-70
2021/10/08 11:54:44;;;;;;;21.00;15.97;;;14.60;99.90;;;;;;4899144;29;20472;-70
2021/10/08 11:57:12;;;;;;;21.47;17.33;;;14.60;99.90;;;;;;4898456;29;20518;-71
2021/10/08 11:59:56;;;;;;;20.73;17.27;;;14.60;99.90;;;;;;4899124;29;20472;-70
2021/10/08 12:02:23;;;;;;;22.93;17.30;;;14.60;99.90;;;;;;4898644;29;20487;-70
2021/10/08 12:05:00;;;;;;;19.27;15.80;;;14.60;99.90;;;;;;4898566;29;20467;-71
2021/10/08 12:07:32;;;;;;;22.90;17.23;;;14.50;99.90;;;;;;4898778;29;20463;-70
2021/10/08 12:10:12;;;;;;;21.23;16.90;;;14.50;99.90;;;;;;4898556;29;20471;-69
2021/10/08 12:12:51;;;;;;;18.23;16.27;;;14.50;99.90;;;;;;4898728;29;20599;-69
2021/10/08 12:15:25;;;;;;;23.33;17.40;;;14.50;99.90;;;;;;4898635;29;20471;-69
2021/10/08 12:17:52;;;;;;;24.00;18.50;;;14.50;99.90;;;;;;4898747;29;20547;-69
2021/10/08 12:20:21;;;;;;;21.87;17.30;;;14.60;99.90;;;;;;4897381;29;20479;-69
2021/10/08 12:22:48;;;;;;;21.83;16.77;;;14.60;99.90;;;;;;4898764;29;20475;-73
2021/10/08 12:25:18;;;;;;;23.17;17.47;;;14.60;99.90;;;;;;4898532;29;20534;-72
2021/10/08 12:27:46;;;;;;;21.30;17.47;;;14.70;99.90;;;;;;4898591;29;20476;-72
2021/10/08 12:30:13;;;;;;;24.67;17.60;;;14.70;99.90;;;;;;4898110;29;20467;-71
2021/10/08 12:32:39;;;;;;;21.43;16.53;;;14.70;99.90;;;;;;4898070;29;20478;-71
2021/10/08 12:35:14;;;;;;;23.47;18.03;;;14.60;99.90;;;;;;4897152;29;20475;-72
2021/10/08 12:37:44;;;;;;;21.60;16.77;;;14.70;99.90;;;;;;4898673;29;20918;-72
2021/10/08 12:40:12;;;;;;;22.47;17.47;;;14.70;99.90;;;;;;4898555;29;20558;-72
2021/10/08 12:42:45;;;;;;;20.37;17.07;;;14.70;99.90;;;;;;4898043;29;20474;-72
2021/10/08 12:45:20;;;;;;;22.27;17.00;;;14.70;99.90;;;;;;4897004;29;20474;-72
2021/10/08 12:47:48;;;;;;;21.27;17.33;;;14.70;99.90;;;;;;4898289;29;20483;-73
2021/10/08 12:50:17;;;;;;;22.90;17.97;;;14.70;99.90;;;;;;4897387;29;20475;-70
2021/10/08 12:52:46;;;;;;;28.03;19.07;;;14.80;99.90;;;;;;4897750;29;20531;-69
2021/10/08 12:55:15;;;;;;;20.17;17.00;;;14.80;99.90;;;;;;4897778;29;20598;-70
2021/10/08 12:58:05;;;;;;;25.67;19.37;;;14.90;99.90;;;;;;4897354;29;20542;-70
2021/10/08 13:00:38;;;;;;;21.67;17.83;;;14.90;99.90;;;;;;4897397;29;20491;-69
2021/10/08 13:03:06;;;;;;;22.43;18.90;;;14.90;99.90;;;;;;4897854;29;20562;-69
2021/10/08 13:05:41;;;;;;;30.40;22.43;;;14.90;99.90;;;;;;4897130;29;20471;-69
2021/10/08 13:08:13;;;;;;;32.47;20.53;;;14.90;99.90;;;;;;4897466;29;20467;-70
2021/10/08 13:11:00;;;;;;;27.97;20.27;;;15.00;99.90;;;;;;4898916;29;20503;-69
2021/10/08 13:13:30;;;;;;;28.90;19.80;;;14.90;99.90;;;;;;4898316;29;20554;-69
2021/10/08 13:15:57;;;;;;;29.10;21.13;;;14.90;99.90;;;;;;4897524;29;20475;-69
2021/10/08 13:18:24;;;;;;;27.73;20.47;;;14.80;99.90;;;;;;4897773;29;20498;-69
2021/10/08 13:20:52;;;;;;;27.47;21.13;;;14.80;99.90;;;;;;4896188;29;21137;-70
2021/10/08 13:23:20;;;;;;;26.67;19.90;;;14.80;99.90;;;;;;4897358;29;20459;-69
2021/10/08 13:25:49;;;;;;;27.53;21.47;;;14.90;99.90;;;;;;4897226;29;20560;-69
2021/10/08 13:28:17;;;;;;;28.50;19.60;;;15.00;99.90;;;;;;4897612;29;20475;-69
2021/10/08 13:30:52;;;;;;;28.37;20.90;;;15.00;99.90;;;;;;4896907;29;20521;-70
2021/10/08 13:33:20;;;;;;;28.40;21.13;;;15.00;99.90;;;;;;4897167;29;21026;-70
2021/10/08 13:35:48;;;;;;;29.23;19.53;;;15.10;99.90;;;;;;4896646;29;20498;-68
2021/10/08 13:38:14;;;;;;;24.47;19.50;;;15.00;99.90;;;;;;4897618;29;20520;-68
2021/10/08 13:40:41;;;;;;;25.23;19.57;;;15.00;99.90;;;;;;4897409;29;20547;-68
2021/10/08 13:43:08;;;;;;;33.83;21.23;;;15.00;99.90;;;;;;4897687;29;20814;-68
2021/10/08 13:45:35;;;;;;;31.50;22.13;;;14.90;99.90;;;;;;4896902;29;20551;-69
2021/10/08 13:48:03;;;;;;;30.03;21.97;;;14.80;99.90;;;;;;4897191;29;20519;-69
2021/10/08 13:50:30;;;;;;;27.03;21.23;;;14.70;99.90;;;;;;4896308;29;20559;-69
2021/10/08 13:52:57;;;;;;;27.50;20.97;;;14.70;99.90;;;;;;4896908;29;20479;-68
2021/10/08 13:55:24;;;;;;;28.93;20.83;;;14.80;99.90;;;;;;4898022;29;20475;-70
2021/10/08 13:57:50;;;;;;;27.80;21.87;;;14.80;99.90;;;;;;4901334;29;20475;-71
2021/10/08 14:00:19;;;;;;;29.80;21.73;;;14.80;99.90;;;;;;4900875;29;20519;-70
2021/10/08 14:02:50;;;;;;;30.30;21.60;;;14.80;99.90;;;;;;4901561;29;20455;-71
2021/10/08 14:05:26;;;;;;;27.07;20.63;;;14.90;99.90;;;;;;4900937;29;20570;-71
2021/10/08 14:08:09;;;;;;;26.73;21.90;;;14.90;99.90;;;;;;4901450;29;20463;-70
2021/10/08 14:10:36;;;;;;;26.83;19.67;;;14.90;99.90;;;;;;4901504;29;20495;-70
2021/10/08 14:13:02;;;;;;;28.30;21.13;;;14.90;99.90;;;;;;4900734;29;20467;-70
2021/10/08 14:15:29;;;;;;;29.07;20.80;;;14.90;99.90;;;;;;4901074;29;20782;-70
2021/10/08 14:17:56;;;;;;;26.77;20.93;;;14.90;99.90;;;;;;4900916;29;20470;-70
2021/10/08 14:20:24;;;;;;;20.07;17.47;;;14.90;99.90;;;;;;4900044;29;20626;-70
2021/10/08 14:22:51;;;;;;;24.70;18.77;;;14.90;99.90;;;;;;4900517;29;20553;-70
2021/10/08 14:25:19;;;;;;;19.73;17.53;;;14.90;99.90;;;;;;4900354;29;20474;-70
2021/10/08 14:27:46;;;;;;;20.40;17.40;;;14.80;99.90;;;;;;4900469;29;21051;-70
2021/10/08 14:30:15;;;;;;;21.00;18.60;;;14.80;99.90;;;;;;4900647;29;20527;-70
2021/10/08 14:32:42;;;;;;;22.23;17.73;;;14.60;99.90;;;;;;4900359;29;20530;-69
2021/10/08 14:35:10;;;;;;;21.60;18.07;;;14.50;99.90;;;;;;4899832;29;21498;-70
2021/10/08 14:37:38;;;;;;;23.40;17.40;;;14.50;99.90;;;;;;4900723;29;20467;-69
2021/10/08 14:40:07;;;;;;;24.77;17.90;;;14.40;99.90;;;;;;4900007;29;20782;-70
2021/10/08 14:42:34;;;;;;;22.27;17.20;;;14.40;99.90;;;;;;4900379;29;20467;-70
2021/10/08 14:45:01;;;;;;;23.17;18.13;;;14.40;99.90;;;;;;4900099;29;20474;-69
2021/10/08 14:47:27;;;;;;;22.97;17.60;;;14.40;99.90;;;;;;4900220;29;20471;-69
2021/10/08 14:49:54;;;;;;;19.93;16.10;;;14.30;99.90;;;;;;4899161;29;20475;-71
2021/10/08 14:52:23;;;;;;;24.50;17.53;;;14.20;99.90;;;;;;4899787;29;20503;-70
2021/10/08 14:57:54;;;;;;;18.80;15.30;;;14.10;99.90;;;;;;4898664;29;20507;-70
2021/10/08 15:00:21;;;;;;;18.70;15.00;;;14.00;99.90;;;;;;4899817;29;20459;-70
2021/10/08 15:02:47;;;;;;;22.40;16.80;;;14.00;99.90;;;;;;4899544;29;20463;-69
2021/10/08 15:05:14;;;;;;;20.30;16.00;;;14.00;99.90;;;;;;4898977;29;21375;-68
2021/10/08 15:07:41;;;;;;;22.30;17.20;;;13.90;99.90;;;;;;4898993;29;20467;-69
2021/10/08 15:10:09;;;;;;;19.93;15.67;;;13.90;99.90;;;;;;4899426;29;20487;-69
2021/10/08 15:12:36;;;;;;;23.23;17.37;;;13.90;99.90;;;;;;4899812;29;20901;-69
2021/10/08 15:15:04;;;;;;;22.20;15.70;;;13.90;99.90;;;;;;4899692;29;20479;-69
2021/10/08 15:17:31;;;;;;;21.30;17.13;;;13.80;99.90;;;;;;4899507;29;20463;-69
2021/10/08 15:19:57;;;;;;;19.17;15.93;;;13.80;99.90;;;;;;4898892;29;20853;-69
2021/10/08 15:22:24;;;;;;;22.67;16.23;;;13.80;99.90;;;;;;4899554;29;21047;-69
2021/10/08 15:24:51;;;;;;;19.20;15.03;;;13.80;99.90;;;;;;4899848;29;20954;-70
2021/10/08 15:27:19;;;;;;;21.40;16.13;;;13.80;99.90;;;;;;4899531;29;21004;-70
2021/10/08 15:29:46;;;;;;;22.97;15.70;;;13.70;99.90;;;;;;4899453;29;20467;-70
2021/10/08 15:32:12;;;;;;;19.53;15.13;;;13.70;99.90;;;;;;4898939;29;20491;-69
2021/10/08 15:34:39;;;;;;;17.40;15.47;;;13.70;99.90;;;;;;4898418;29;20472;-70
2021/10/08 15:37:06;;;;;;;19.60;15.40;;;13.70;99.90;;;;;;4899155;29;20479;-70
2021/10/08 15:39:32;;;;;;;19.17;15.70;;;13.70;99.90;;;;;;4899174;29;20491;-70
2021/10/08 15:41:59;;;;;;;19.20;15.80;;;13.70;99.90;;;;;;4898803;29;20488;-70
2021/10/08 15:44:27;;;;;;;20.90;16.80;;;13.60;99.90;;;;;;4898811;29;20549;-70
2021/10/08 15:46:53;;;;;;;21.43;16.43;;;13.60;99.90;;;;;;4898829;29;20476;-69
2021/10/08 15:49:20;;;;;;;20.33;16.03;;;13.60;99.90;;;;;;4898837;29;20519;-70
2021/10/08 15:51:47;;;;;;;17.93;14.60;;;13.50;99.90;;;;;;4898431;29;20491;-70
2021/10/08 15:54:13;;;;;;;20.20;15.30;;;13.50;99.90;;;;;;4898866;29;20498;-70
2021/10/08 15:56:40;;;;;;;22.13;16.23;;;13.50;99.90;;;;;;4898786;29;20766;-70
2021/10/08 15:59:07;;;;;;;22.47;17.00;;;13.40;99.90;;;;;;4898895;29;20494;-70
2021/10/08 16:01:35;;;;;;;22.27;17.90;;;13.40;99.90;;;;;;4898652;29;20570;-70
2021/10/08 16:04:02;;;;;;;21.90;16.50;;;13.40;99.90;;;;;;4898876;29;20562;-70
2021/10/08 16:06:29;;;;;;;22.10;17.20;;;13.40;99.90;;;;;;4897907;29;20471;-73
2021/10/08 16:08:55;;;;;;;22.83;16.93;;;13.30;99.90;;;;;;4898492;29;20474;-72
2021/10/08 16:11:22;;;;;;;26.43;17.90;;;13.30;99.90;;;;;;4898761;29;20807;-71
2021/10/08 16:13:49;;;;;;;19.10;16.83;;;13.20;99.90;;;;;;4898550;29;20475;-72
2021/10/08 16:16:15;;;;;;;22.93;18.97;;;13.20;99.90;;;;;;4898605;29;20478;-72
2021/10/08 16:18:47;;;;;;;26.37;19.57;;;13.10;99.90;;;;;;4898268;29;20909;-73
2021/10/08 16:21:14;;;;;;;24.90;19.13;;;13.10;99.90;;;;;;4897513;29;20491;-72
2021/10/08 16:23:41;;;;;;;26.50;20.23;;;13.00;99.90;;;;;;4898249;29;20996;-72
2021/10/08 16:26:08;;;;;;;24.20;18.87;;;13.00;99.90;;;;;;4898133;29;20482;-73
2021/10/08 16:28:34;;;;;;;27.93;20.70;;;13.00;99.90;;;;;;4898514;29;20472;-72
2021/10/08 16:31:01;;;;;;;25.90;19.90;;;12.90;99.90;;;;;;4898340;29;20554;-72
2021/10/08 16:33:28;;;;;;;29.13;20.07;;;12.90;99.90;;;;;;4898058;29;20937;-72
2021/10/08 16:35:57;;;;;;;33.20;21.50;;;12.80;99.90;;;;;;4897145;29;20475;-72
2021/10/08 16:38:24;;;;;;;23.97;18.87;;;12.80;99.90;;;;;;4898305;29;20467;-72
2021/10/08 16:40:51;;;;;;;28.40;20.63;;;12.80;99.90;;;;;;4897767;29;20495;-73
2021/10/08 16:43:22;;;;;;;26.02;20.02;;;12.60;99.90;;;;;;4898394;29;20270;-71
2021/10/08 16:45:49;;;;;;;31.30;21.20;;;12.60;99.90;;;;;;4898618;29;20245;-71
2021/10/08 16:48:16;;;;;;;32.72;22.00;;;12.60;99.90;;;;;;4898276;29;20588;-71
2021/10/08 16:50:43;;;;;;;31.88;21.63;;;12.50;99.90;;;;;;4896747;29;20750;-71
2021/10/08 16:53:12;;;;;;;30.10;21.08;;;12.50;99.90;;;;;;4897703;29;20267;-71
2021/10/08 16:55:38;;;;;;;32.60;22.23;;;12.40;99.90;;;;;;4900641;29;20601;-71